Time;durP1;ratioP1;P1;durP2;ratioP2;P2;SDS_P1;SDS_P2;PMS_P1;PMS_P2;Temp;Humidity;BMP_temperature;BMP_pressure;BME280_temperature;BME280_humidity;BME280_pressure;Samples;Min_cycle;Max_cycle;Signal;HPM_P1;HPM_P2
2022/09/03 00:02:20;;;;;;;;;4.33;4.33;;;;;;;;5104716;27;61877;-78
2022/09/03 00:04:50;;;;;;;;;5.00;5.00;;;;;;;;5104067;27;63225;-77
2022/09/03 00:07:36;;;;;;;;;5.67;4.33;;;;;;;;5102913;27;62126;-78
2022/09/03 00:10:07;;;;;;;;;7.67;6.00;;;;;;;;5104350;27;61889;-78
2022/09/03 00:12:38;;;;;;;;;7.33;7.00;;;;;;;;5103598;27;61957;-78
2022/09/03 00:15:08;;;;;;;;;5.33;5.33;;;;;;;;5102610;27;64066;-78
2022/09/03 00:17:39;;;;;;;;;7.33;5.67;;;;;;;;5103059;27;62278;-79
2022/09/03 00:20:25;;;;;;;;;7.67;6.33;;;;;;;;5102703;27;61843;-78
2022/09/03 00:22:53;;;;;;;;;6.00;6.00;;;;;;;;5103757;27;61904;-78
2022/09/03 00:25:21;;;;;;;;;5.00;2.00;;;;;;;;5103504;27;62045;-78
2022/09/03 00:27:50;;;;;;;;;5.67;5.00;;;;;;;;5103057;27;61831;-79
2022/09/03 00:30:16;;;;;;;;;5.00;5.00;;;;;;;;5104036;27;62194;-78
2022/09/03 00:32:47;;;;;;;;;9.67;5.00;;;;;;;;5104295;27;61945;-78
2022/09/03 00:35:35;;;;;;;;;8.00;5.00;;;;;;;;5103576;27;61908;-78
2022/09/03 00:38:00;;;;;;;;;3.00;3.00;;;;;;;;5097836;27;62010;-78
2022/09/03 00:41:05;;;;;;;;;7.33;5.00;;;;;;;;5104234;27;61793;-78
2022/09/03 00:43:37;;;;;;;;;6.67;6.00;;;;;;;;5043935;28;62043;-78
2022/09/03 00:46:04;;;;;;;;;6.67;5.33;;;;;;;;5042985;28;64842;-78
2022/09/03 00:48:32;;;;;;;;;8.67;5.00;;;;;;;;5060695;28;61954;-78
2022/09/03 00:51:27;;;;;;;;;3.67;3.67;;;;;;;;5043650;28;62278;-77
2022/09/03 00:53:52;;;;;;;;;5.67;5.00;;;;;;;;5059797;28;61940;-78
2022/09/03 00:56:33;;;;;;;;;5.00;5.00;;;;;;;;5059956;28;61930;-78
2022/09/03 00:59:05;;;;;;;;;7.00;6.00;;;;;;;;5043910;28;62067;-78
2022/09/03 01:01:47;;;;;;;;;4.00;2.67;;;;;;;;5060260;28;62217;-78
2022/09/03 01:04:27;;;;;;;;;5.67;5.00;;;;;;;;5060825;28;61948;-78
2022/09/03 01:06:59;;;;;;;;;3.00;3.00;;;;;;;;5059589;28;62115;-78
2022/09/03 01:09:31;;;;;;;;;4.33;4.00;;;;;;;;5059979;28;62132;-78
2022/09/03 01:11:59;;;;;;;;;6.00;4.33;;;;;;;;5043566;28;62040;-78
2022/09/03 01:14:24;;;;;;;;;6.33;5.00;;;;;;;;5074117;27;61971;-77
2022/09/03 01:17:02;;;;;;;;;4.67;4.67;;;;;;;;5102998;27;62597;-78
2022/09/03 01:19:39;;;;;;;;;3.67;3.67;;;;;;;;5101954;27;61697;-78
2022/09/03 01:22:19;;;;;;;;;3.33;3.33;;;;;;;;5103167;27;61820;-78
2022/09/03 01:24:58;;;;;;;;;3.33;3.00;;;;;;;;5103375;27;62007;-78
2022/09/03 01:27:36;;;;;;;;;5.33;4.00;;;;;;;;5102613;27;61879;-78
2022/09/03 01:30:02;;;;;;;;;4.00;4.00;;;;;;;;5102954;27;61682;-77
2022/09/03 01:32:28;;;;;;;;;5.00;3.67;;;;;;;;5101976;27;61996;-78
2022/09/03 01:34:54;;;;;;;;;5.67;5.67;;;;;;;;5101974;27;61847;-78
2022/09/03 01:37:38;;;;;;;;;4.67;4.67;;;;;;;;5100826;27;64007;-78
2022/09/03 01:40:03;;;;;;;;;5.67;3.00;;;;;;;;5102016;27;62032;-78
2022/09/03 01:42:37;;;;;;;;;5.00;4.00;;;;;;;;5103063;27;61808;-78
2022/09/03 01:45:20;;;;;;;;;5.00;4.00;;;;;;;;5103358;27;61992;-77
2022/09/03 01:48:05;;;;;;;;;5.67;4.00;;;;;;;;5102490;27;61845;-78
2022/09/03 01:50:59;;;;;;;;;4.67;2.67;;;;;;;;5102733;27;61817;-77
2022/09/03 01:53:39;;;;;;;;;5.00;5.00;;;;;;;;5092861;27;62016;-78
2022/09/03 01:56:14;;;;;;;;;3.67;3.67;;;;;;;;5101852;27;61964;-77
2022/09/03 01:58:58;;;;;;;;;6.33;4.00;;;;;;;;5101981;27;61657;-78
2022/09/03 02:01:29;;;;;;;;;5.33;5.00;;;;;;;;5101425;27;61979;-78
2022/09/03 02:03:58;;;;;;;;;6.00;4.33;;;;;;;;5101366;27;61928;-78
2022/09/03 02:06:24;;;;;;;;;5.00;5.00;;;;;;;;5102697;27;61753;-77
2022/09/03 02:08:49;;;;;;;;;7.33;4.00;;;;;;;;5101962;27;61715;-78
2022/09/03 02:11:14;;;;;;;;;5.00;5.00;;;;;;;;5102685;27;61885;-77
2022/09/03 02:13:41;;;;;;;;;5.67;4.67;;;;;;;;5102621;27;62313;-78
2022/09/03 02:16:10;;;;;;;;;5.00;4.00;;;;;;;;5101932;27;61861;-78
2022/09/03 02:18:40;;;;;;;;;6.33;4.67;;;;;;;;5100769;27;63745;-78
2022/09/03 02:21:05;;;;;;;;;4.67;3.67;;;;;;;;5102687;27;61864;-77
2022/09/03 02:23:31;;;;;;;;;5.00;4.33;;;;;;;;5100756;27;61962;-78
2022/09/03 02:25:58;;;;;;;;;4.67;4.67;;;;;;;;5103083;27;61962;-77
2022/09/03 02:28:25;;;;;;;;;3.00;3.00;;;;;;;;5102205;27;61891;-78
2022/09/03 02:30:50;;;;;;;;;4.00;4.00;;;;;;;;5100849;27;62079;-78
2022/09/03 02:33:16;;;;;;;;;5.33;5.33;;;;;;;;5101331;27;61974;-78
2022/09/03 02:35:41;;;;;;;;;5.00;4.33;;;;;;;;5101532;27;62220;-78
2022/09/03 02:38:21;;;;;;;;;3.00;3.00;;;;;;;;5100524;27;63613;-78
2022/09/03 02:40:47;;;;;;;;;4.00;4.00;;;;;;;;5102496;27;61981;-77
2022/09/03 02:43:16;;;;;;;;;5.67;3.33;;;;;;;;5101171;27;61834;-78
2022/09/03 02:45:44;;;;;;;;;7.33;5.00;;;;;;;;5101350;27;62405;-78
2022/09/03 02:48:10;;;;;;;;;3.33;3.33;;;;;;;;5102054;27;61838;-78
2022/09/03 02:50:41;;;;;;;;;3.00;2.00;;;;;;;;5100865;27;62244;-77
2022/09/03 02:53:07;;;;;;;;;2.00;2.00;;;;;;;;5100544;27;61674;-77
2022/09/03 02:55:33;;;;;;;;;3.00;3.00;;;;;;;;5101185;27;62020;-78
2022/09/03 02:57:59;;;;;;;;;5.00;4.00;;;;;;;;5099942;27;63717;-78
2022/09/03 03:00:24;;;;;;;;;4.33;3.33;;;;;;;;5102636;27;61796;-78
2022/09/03 03:02:50;;;;;;;;;4.67;4.00;;;;;;;;5100534;27;61678;-78
2022/09/03 03:05:20;;;;;;;;;4.33;4.33;;;;;;;;5102508;27;61744;-77
2022/09/03 03:07:45;;;;;;;;;3.67;2.00;;;;;;;;5101128;27;61922;-78
2022/09/03 03:10:11;;;;;;;;;6.00;4.00;;;;;;;;5101763;27;62181;-78
2022/09/03 03:12:36;;;;;;;;;4.00;4.00;;;;;;;;5100611;27;61934;-78
2022/09/03 03:15:02;;;;;;;;;5.67;3.00;;;;;;;;5100641;27;61761;-78
2022/09/03 03:17:27;;;;;;;;;4.00;4.00;;;;;;;;5104181;27;63195;-78
2022/09/03 03:19:53;;;;;;;;;5.33;3.00;;;;;;;;5103945;27;61868;-78
2022/09/03 03:22:18;;;;;;;;;4.00;4.00;;;;;;;;5103850;27;61973;-78
2022/09/03 03:24:43;;;;;;;;;7.00;3.67;;;;;;;;5104045;27;61988;-78
2022/09/03 03:27:10;;;;;;;;;7.67;4.33;;;;;;;;5104565;27;62094;-78
2022/09/03 03:29:35;;;;;;;;;4.67;4.67;;;;;;;;5104024;27;61982;-78
2022/09/03 03:32:01;;;;;;;;;3.33;3.33;;;;;;;;5105011;27;61835;-78
2022/09/03 03:34:26;;;;;;;;;5.00;3.67;;;;;;;;5104207;27;61973;-78
2022/09/03 03:36:51;;;;;;;;;5.00;5.00;;;;;;;;5104275;27;62719;-78
2022/09/03 03:39:17;;;;;;;;;4.00;4.00;;;;;;;;5105099;27;62050;-77
2022/09/03 03:41:42;;;;;;;;;4.00;4.00;;;;;;;;5105316;27;61869;-78
2022/09/03 03:44:07;;;;;;;;;6.75;4.25;;;;;;;;5103741;27;62679;-78
2022/09/03 03:46:34;;;;;;;;;5.00;5.00;;;;;;;;5104785;27;61845;-79
2022/09/03 03:49:00;;;;;;;;;3.00;3.00;;;;;;;;5105054;27;62067;-78
2022/09/03 03:51:25;;;;;;;;;8.67;6.00;;;;;;;;5103015;27;61763;-77
2022/09/03 03:53:58;;;;;;;;;5.67;4.67;;;;;;;;5103207;27;61898;-78
2022/09/03 03:56:25;;;;;;;;;5.00;4.33;;;;;;;;5104644;27;62026;-78
2022/09/03 03:58:52;;;;;;;;;6.33;4.33;;;;;;;;5104899;27;62180;-78
2022/09/03 04:01:19;;;;;;;;;6.50;6.00;;;;;;;;5103418;27;61993;-78
2022/09/03 04:03:44;;;;;;;;;7.00;6.00;;;;;;;;5103713;27;61868;-78
2022/09/03 04:06:11;;;;;;;;;7.33;4.00;;;;;;;;5103916;27;61999;-78
2022/09/03 04:08:38;;;;;;;;;5.00;5.00;;;;;;;;5102856;27;62518;-78
2022/09/03 04:11:04;;;;;;;;;3.67;3.67;;;;;;;;5102978;27;61868;-78
2022/09/03 04:13:33;;;;;;;;;7.33;4.00;;;;;;;;5104859;27;61784;-78
2022/09/03 04:16:01;;;;;;;;;5.33;2.67;;;;;;;;5103834;27;61818;-78
2022/09/03 04:18:26;;;;;;;;;6.00;5.00;;;;;;;;5104789;27;61912;-78
2022/09/03 04:20:51;;;;;;;;;5.50;5.50;;;;;;;;5102921;27;62077;-78
2022/09/03 04:23:16;;;;;;;;;7.50;6.50;;;;;;;;5104087;27;61808;-78
2022/09/03 04:25:42;;;;;;;;;6.00;6.00;;;;;;;;5102667;27;63658;-78
2022/09/03 04:28:07;;;;;;;;;7.00;6.50;;;;;;;;5104311;27;62653;-78
2022/09/03 04:30:32;;;;;;;;;7.50;4.50;;;;;;;;5103060;27;61863;-77
2022/09/03 04:32:58;;;;;;;;;6.25;4.00;;;;;;;;5103203;27;61855;-78
2022/09/03 04:35:24;;;;;;;;;4.00;4.00;;;;;;;;5103741;27;61848;-78
2022/09/03 04:37:50;;;;;;;;;5.67;4.00;;;;;;;;5103691;27;61948;-78
2022/09/03 04:40:15;;;;;;;;;8.67;5.33;;;;;;;;5103931;27;62010;-78
2022/09/03 04:42:40;;;;;;;;;7.25;5.25;;;;;;;;5104414;27;61917;-78
2022/09/03 04:45:06;;;;;;;;;6.33;6.00;;;;;;;;5102203;27;63454;-78
2022/09/03 04:47:31;;;;;;;;;7.75;7.75;;;;;;;;5104300;27;61839;-78
2022/09/03 04:49:57;;;;;;;;;6.00;5.00;;;;;;;;5104459;27;62025;-78
2022/09/03 04:52:23;;;;;;;;;8.67;5.67;;;;;;;;5103496;27;61681;-78
2022/09/03 04:54:48;;;;;;;;;6.33;6.33;;;;;;;;5103160;27;61964;-78
2022/09/03 04:57:13;;;;;;;;;6.00;4.67;;;;;;;;5104018;27;61751;-78
2022/09/03 04:59:39;;;;;;;;;5.00;5.00;;;;;;;;5104262;27;61924;-78
2022/09/03 05:02:05;;;;;;;;;4.00;4.00;;;;;;;;5102758;27;62166;-78
2022/09/03 05:04:30;;;;;;;;;7.00;6.00;;;;;;;;5103265;27;62686;-78
2022/09/03 05:06:56;;;;;;;;;5.33;5.00;;;;;;;;5103412;27;61816;-78
2022/09/03 05:09:21;;;;;;;;;5.75;5.00;;;;;;;;5103408;27;61785;-77
2022/09/03 05:11:46;;;;;;;;;8.25;6.50;;;;;;;;5104301;27;62367;-78
2022/09/03 05:14:11;;;;;;;;;7.00;7.00;;;;;;;;5102885;27;61850;-78
2022/09/03 05:16:37;;;;;;;;;10.00;6.00;;;;;;;;5102368;27;61894;-78
2022/09/03 05:19:05;;;;;;;;;4.00;4.00;;;;;;;;5104049;27;61839;-78
2022/09/03 05:21:30;;;;;;;;;5.50;4.25;;;;;;;;5101877;27;62157;-78
2022/09/03 05:23:56;;;;;;;;;8.75;5.75;;;;;;;;5101208;27;64153;-78
2022/09/03 05:26:23;;;;;;;;;7.75;5.25;;;;;;;;5102207;27;62094;-78
2022/09/03 05:28:51;;;;;;;;;4.25;4.00;;;;;;;;5102491;27;61938;-78
2022/09/03 05:31:18;;;;;;;;;5.75;5.75;;;;;;;;5102115;27;61882;-78
2022/09/03 05:33:44;;;;;;;;;10.50;6.75;;;;;;;;5101593;27;64196;-78
2022/09/03 05:36:11;;;;;;;;;5.00;5.00;;;;;;;;5101706;27;61782;-79
2022/09/03 05:38:36;;;;;;;;;7.00;4.75;;;;;;;;5101105;27;61876;-78
2022/09/03 05:41:03;;;;;;;;;7.00;6.00;;;;;;;;5089147;27;62037;-78
2022/09/03 05:43:29;;;;;;;;;4.25;4.25;;;;;;;;5094872;27;63567;-79
2022/09/03 05:45:59;;;;;;;;;7.00;5.75;;;;;;;;5103009;27;61834;-80
2022/09/03 05:48:32;;;;;;;;;7.33;6.00;;;;;;;;5101731;27;61932;-79
2022/09/03 05:50:58;;;;;;;;;5.00;4.00;;;;;;;;5102401;27;61943;-79
2022/09/03 05:53:24;;;;;;;;;9.00;8.00;;;;;;;;5101312;27;62093;-79
2022/09/03 05:55:59;;;;;;;;;8.00;8.00;;;;;;;;5102961;27;62026;-80
2022/09/03 05:58:29;;;;;;;;;9.50;7.50;;;;;;;;5101419;27;61738;-80
2022/09/03 06:00:54;;;;;;;;;8.50;6.75;;;;;;;;5102467;27;61742;-81
2022/09/03 06:03:19;;;;;;;;;7.50;5.00;;;;;;;;5100707;27;63897;-79
2022/09/03 06:05:51;;;;;;;;;7.00;6.50;;;;;;;;5102018;27;61943;-81
2022/09/03 06:08:16;;;;;;;;;8.00;7.00;;;;;;;;5102307;27;61911;-78
2022/09/03 06:10:42;;;;;;;;;6.25;5.75;;;;;;;;5102319;27;61721;-78
2022/09/03 06:13:07;;;;;;;;;8.00;7.00;;;;;;;;5101683;27;61965;-78
2022/09/03 06:15:32;;;;;;;;;6.75;5.75;;;;;;;;5100955;27;61929;-78
2022/09/03 06:17:57;;;;;;;;;8.00;6.67;;;;;;;;5102701;27;61984;-78
2022/09/03 06:20:26;;;;;;;;;6.00;5.00;;;;;;;;5102157;27;61756;-79
2022/09/03 06:22:57;;;;;;;;;6.25;6.25;;;;;;;;5098961;27;63467;-78
2022/09/03 06:25:23;;;;;;;;;5.33;5.33;;;;;;;;5100793;27;62094;-79
2022/09/03 06:27:49;;;;;;;;;7.33;5.67;;;;;;;;5100698;27;61784;-79
2022/09/03 06:30:15;;;;;;;;;7.00;7.00;;;;;;;;5101440;27;61982;-78
2022/09/03 06:32:44;;;;;;;;;7.75;5.75;;;;;;;;5099841;27;63867;-80
2022/09/03 06:35:10;;;;;;;;;7.33;6.33;;;;;;;;5101915;27;61896;-81
2022/09/03 06:37:39;;;;;;;;;7.75;6.75;;;;;;;;5101436;27;61698;-80
2022/09/03 06:40:04;;;;;;;;;6.75;6.75;;;;;;;;5102371;27;61717;-79
2022/09/03 06:42:30;;;;;;;;;9.50;6.00;;;;;;;;5091975;27;64903;-78
2022/09/03 06:44:56;;;;;;;;;10.00;7.67;;;;;;;;5085759;27;61785;-78
2022/09/03 06:47:21;;;;;;;;;6.00;6.00;;;;;;;;5100651;27;61917;-79
2022/09/03 06:49:46;;;;;;;;;6.00;6.00;;;;;;;;5100617;27;61920;-78
2022/09/03 06:52:12;;;;;;;;;8.00;6.00;;;;;;;;5102254;27;62013;-79
2022/09/03 06:54:38;;;;;;;;;5.33;5.33;;;;;;;;5102964;27;61994;-79
2022/09/03 06:57:03;;;;;;;;;10.67;5.67;;;;;;;;5104529;27;61904;-80
2022/09/03 06:59:28;;;;;;;;;6.00;5.00;;;;;;;;5105428;27;61816;-80
2022/09/03 07:01:54;;;;;;;;;7.00;7.00;;;;;;;;5103989;27;62119;-80
2022/09/03 07:04:21;;;;;;;;;7.33;6.00;;;;;;;;5103997;27;62170;-81
2022/09/03 07:06:47;;;;;;;;;5.67;4.67;;;;;;;;5105349;27;61919;-79
2022/09/03 07:09:14;;;;;;;;;5.00;5.00;;;;;;;;5103660;27;61853;-82
2022/09/03 07:11:45;;;;;;;;;8.75;8.00;;;;;;;;5103530;27;63505;-82
2022/09/03 07:14:10;;;;;;;;;8.25;8.25;;;;;;;;5102816;27;62260;-82
2022/09/03 07:16:36;;;;;;;;;6.50;5.00;;;;;;;;5105163;27;61778;-81
2022/09/03 07:19:03;;;;;;;;;6.33;6.00;;;;;;;;5105554;27;62082;-81
2022/09/03 07:21:30;;;;;;;;;7.33;5.00;;;;;;;;5103211;27;61950;-82
2022/09/03 07:23:56;;;;;;;;;5.00;5.00;;;;;;;;5104358;27;62034;-82
2022/09/03 07:26:23;;;;;;;;;7.33;5.67;;;;;;;;5102459;27;62028;-80
2022/09/03 07:28:50;;;;;;;;;7.00;5.00;;;;;;;;5100064;27;61847;-81
2022/09/03 07:31:18;;;;;;;;;4.00;4.00;;;;;;;;5100811;27;63624;-80
2022/09/03 07:33:44;;;;;;;;;7.33;5.33;;;;;;;;5103500;27;61771;-79
2022/09/03 07:36:11;;;;;;;;;8.33;6.67;;;;;;;;5101816;27;61809;-80
2022/09/03 07:38:37;;;;;;;;;5.00;5.00;;;;;;;;5104479;27;61945;-80
2022/09/03 07:41:06;;;;;;;;;5.00;5.00;;;;;;;;5103864;27;63022;-79
2022/09/03 07:43:38;;;;;;;;;6.33;6.33;;;;;;;;5101872;27;62102;-79
2022/09/03 07:46:04;;;;;;;;;4.67;3.67;;;;;;;;5104573;27;61974;-81
2022/09/03 07:48:29;;;;;;;;;5.00;4.00;;;;;;;;5104443;27;62168;-80
2022/09/03 07:50:59;;;;;;;;;6.67;3.33;;;;;;;;5104392;27;61935;-82
2022/09/03 07:53:25;;;;;;;;;4.33;4.33;;;;;;;;5104136;27;61811;-81
2022/09/03 07:55:50;;;;;;;;;7.33;5.00;;;;;;;;5105291;27;62087;-81
2022/09/03 07:58:16;;;;;;;;;3.00;3.00;;;;;;;;5103266;27;62329;-82
2022/09/03 08:00:42;;;;;;;;;6.33;6.00;;;;;;;;5101457;27;64708;-79
2022/09/03 08:03:07;;;;;;;;;5.00;5.00;;;;;;;;5101850;27;61823;-80
2022/09/03 08:05:35;;;;;;;;;6.00;4.33;;;;;;;;5104289;27;61772;-80
2022/09/03 08:08:00;;;;;;;;;4.33;4.33;;;;;;;;5102332;27;61935;-80
2022/09/03 08:10:29;;;;;;;;;8.33;4.67;;;;;;;;5102882;27;62977;-80
2022/09/03 08:12:54;;;;;;;;;6.00;5.00;;;;;;;;5101964;27;61887;-80
2022/09/03 08:15:20;;;;;;;;;4.00;4.00;;;;;;;;5101580;27;61827;-81
2022/09/03 08:17:45;;;;;;;;;6.33;4.67;;;;;;;;5103582;27;61964;-78
2022/09/03 08:20:11;;;;;;;;;5.00;5.00;;;;;;;;5101854;27;63965;-79
2022/09/03 08:22:36;;;;;;;;;9.00;4.67;;;;;;;;5101958;27;61962;-79
2022/09/03 08:25:01;;;;;;;;;5.00;4.00;;;;;;;;5103897;27;61993;-79
2022/09/03 08:27:27;;;;;;;;;4.00;4.00;;;;;;;;5103712;27;61789;-79
2022/09/03 08:29:53;;;;;;;;;4.67;4.33;;;;;;;;5100690;27;63746;-78
2022/09/03 08:32:18;;;;;;;;;5.33;4.33;;;;;;;;5100302;27;62157;-79
2022/09/03 08:34:44;;;;;;;;;5.00;3.67;;;;;;;;5098753;27;62071;-82
2022/09/03 08:37:12;;;;;;;;;3.00;3.00;;;;;;;;5102076;27;61976;-82
2022/09/03 08:39:38;;;;;;;;;5.67;5.00;;;;;;;;5098879;27;63528;-83
2022/09/03 08:42:08;;;;;;;;;3.67;3.67;;;;;;;;5100612;27;62057;-82
2022/09/03 08:44:55;;;;;;;;;4.00;4.00;;;;;;;;5101618;27;61844;-77
2022/09/03 08:47:32;;;;;;;;;6.33;4.00;;;;;;;;5100508;27;62079;-80
2022/09/03 08:50:18;;;;;;;;;2.00;2.00;;;;;;;;5098260;27;63610;-79
2022/09/03 08:52:48;;;;;;;;;2.67;1.67;;;;;;;;5125541;27;61950;-79
2022/09/03 08:55:16;;;;;;;;;3.00;2.33;;;;;;;;5101621;27;61850;-79
2022/09/03 08:57:47;;;;;;;;;2.67;2.67;;;;;;;;5100032;27;61897;-79
2022/09/03 09:00:12;;;;;;;;;4.33;3.00;;;;;;;;5099253;27;61948;-79
2022/09/03 09:02:52;;;;;;;;;3.00;3.00;;;;;;;;5100512;27;61923;-79
2022/09/03 09:05:43;;;;;;;;;3.33;2.33;;;;;;;;5101342;27;61946;-81
2022/09/03 09:08:32;;;;;;;;;3.00;3.00;;;;;;;;5102321;27;61916;-81
2022/09/03 09:11:12;;;;;;;;;3.00;2.67;;;;;;;;5088603;27;61950;-80
2022/09/03 09:13:44;;;;;;;;;3.00;3.00;;;;;;;;5100165;27;62197;-80
2022/09/03 09:16:17;;;;;;;;;2.67;2.00;;;;;;;;5102889;27;61891;-80
2022/09/03 09:18:43;;;;;;;;;1.33;1.33;;;;;;;;5083244;27;61730;-80
2022/09/03 09:21:12;;;;;;;;;2.00;2.00;;;;;;;;5081238;28;63801;-79
2022/09/03 09:23:45;;;;;;;;;2.00;2.00;;;;;;;;5082164;28;61858;-80
2022/09/03 09:26:13;;;;;;;;;1.67;1.33;;;;;;;;5081755;28;61894;-80
2022/09/03 09:28:39;;;;;;;;;2.00;2.00;;;;;;;;5082859;28;61815;-80
2022/09/03 09:31:11;;;;;;;;;2.00;2.00;;;;;;;;5082641;28;62720;-80
2022/09/03 09:33:37;;;;;;;;;2.00;2.00;;;;;;;;5081049;28;61745;-81
2022/09/03 09:36:04;;;;;;;;;1.33;1.33;;;;;;;;5081633;28;61699;-80
2022/09/03 09:38:30;;;;;;;;;1.67;1.33;;;;;;;;5082354;27;61840;-80
2022/09/03 09:41:06;;;;;;;;;2.00;2.00;;;;;;;;5082064;27;61842;-80
2022/09/03 09:43:32;;;;;;;;;3.67;1.67;;;;;;;;5082251;27;61829;-80
2022/09/03 09:46:04;;;;;;;;;1.33;1.33;;;;;;;;5082800;28;61705;-80
2022/09/03 09:48:33;;;;;;;;;3.67;2.00;;;;;;;;5092343;27;61776;-79
2022/09/03 09:51:05;;;;;;;;;3.00;1.67;;;;;;;;5100464;27;63958;-79
2022/09/03 09:53:31;;;;;;;;;0.67;0.67;;;;;;;;5102437;27;61756;-79
2022/09/03 09:55:57;;;;;;;;;1.67;1.67;;;;;;;;5102004;27;61769;-81
2022/09/03 09:58:23;;;;;;;;;2.33;1.00;;;;;;;;5103271;27;62030;-79
2022/09/03 10:01:03;;;;;;;;;2.33;2.00;;;;;;;;5102483;27;62817;-80
2022/09/03 10:03:33;;;;;;;;;4.33;2.67;;;;;;;;5102913;27;61832;-79
2022/09/03 10:08:53;;;;;;;;;0.67;0.67;;;;;;;;5102507;27;61841;-80
2022/09/03 10:11:18;;;;;;;;;3.67;2.67;;;;;;;;5102074;27;61827;-79
2022/09/03 10:13:47;;;;;;;;;3.00;3.00;;;;;;;;5102521;27;61771;-79
2022/09/03 10:16:20;;;;;;;;;1.00;1.00;;;;;;;;5101584;27;61879;-81
2022/09/03 10:19:05;;;;;;;;;2.00;2.00;;;;;;;;5101319;27;61779;-79
2022/09/03 10:21:57;;;;;;;;;3.00;1.67;;;;;;;;5100708;27;63487;-79
2022/09/03 10:24:48;;;;;;;;;3.67;2.33;;;;;;;;5101293;27;61818;-81
2022/09/03 10:27:15;;;;;;;;;2.33;2.33;;;;;;;;5104912;27;61787;-80
2022/09/03 10:29:41;;;;;;;;;2.00;2.00;;;;;;;;5106409;27;61782;-80
2022/09/03 10:32:41;;;;;;;;;2.33;1.00;;;;;;;;5103897;27;64805;-81
2022/09/03 10:35:17;;;;;;;;;3.67;2.00;;;;;;;;5083344;28;61883;-80
2022/09/03 10:38:06;;;;;;;;;1.00;1.00;;;;;;;;5065736;28;61930;-79
2022/09/03 10:40:36;;;;;;;;;2.33;2.33;;;;;;;;5072456;27;61964;-79
2022/09/03 10:43:16;;;;;;;;;2.00;1.00;;;;;;;;5065051;28;63700;-81
2022/09/03 10:46:00;;;;;;;;;1.67;1.00;;;;;;;;5066094;28;61878;-80
2022/09/03 10:48:34;;;;;;;;;3.00;3.00;;;;;;;;5066015;28;61917;-80
2022/09/03 10:51:03;;;;;;;;;1.67;1.67;;;;;;;;5065648;28;62010;-81
2022/09/03 10:53:40;;;;;;;;;3.33;2.67;;;;;;;;5081185;28;61741;-81
2022/09/03 10:56:31;;;;;;;;;3.33;3.33;;;;;;;;5065338;28;61897;-80
2022/09/03 10:59:15;;;;;;;;;3.33;2.33;;;;;;;;5082834;28;61989;-80
2022/09/03 11:01:53;;;;;;;;;3.00;2.33;;;;;;;;5065649;28;61809;-79
2022/09/03 11:04:21;;;;;;;;;3.00;3.00;;;;;;;;5082200;28;61884;-80
2022/09/03 11:06:46;;;;;;;;;4.00;2.00;;;;;;;;5065332;28;61786;-80
2022/09/03 11:09:25;;;;;;;;;1.00;1.00;;;;;;;;5083644;27;61876;-80
2022/09/03 11:11:52;;;;;;;;;2.33;2.33;;;;;;;;5104367;27;62201;-79
2022/09/03 11:14:27;;;;;;;;;2.00;1.00;;;;;;;;5104858;27;61748;-80
2022/09/03 11:17:02;;;;;;;;;3.00;3.00;;;;;;;;5103962;27;61777;-80
2022/09/03 11:19:42;;;;;;;;;3.33;2.00;;;;;;;;5105507;27;61890;-80
2022/09/03 11:22:09;;;;;;;;;1.33;1.33;;;;;;;;5104856;27;61992;-80
2022/09/03 11:24:38;;;;;;;;;2.67;2.67;;;;;;;;5104631;27;62758;-81
2022/09/03 11:27:04;;;;;;;;;4.00;3.00;;;;;;;;5103796;27;62010;-80
2022/09/03 11:29:40;;;;;;;;;3.00;3.00;;;;;;;;5103541;27;61988;-80
2022/09/03 11:32:25;;;;;;;;;3.33;2.67;;;;;;;;5105190;27;62099;-80
2022/09/03 11:34:53;;;;;;;;;5.67;2.67;;;;;;;;5104629;27;63024;-80
2022/09/03 11:37:22;;;;;;;;;2.00;2.00;;;;;;;;5103397;27;61896;-79
2022/09/03 11:40:08;;;;;;;;;2.33;2.33;;;;;;;;5103877;27;61754;-82
2022/09/03 11:42:35;;;;;;;;;2.67;1.33;;;;;;;;5100703;27;62126;-80
2022/09/03 11:45:19;;;;;;;;;2.33;2.00;;;;;;;;5102791;27;62982;-80
2022/09/03 11:47:45;;;;;;;;;1.67;1.67;;;;;;;;5102617;27;61941;-79
2022/09/03 11:50:27;;;;;;;;;3.33;2.00;;;;;;;;5104054;27;61871;-79
2022/09/03 11:53:11;;;;;;;;;3.00;2.00;;;;;;;;5100700;27;62179;-79
2022/09/03 11:55:46;;;;;;;;;2.67;1.67;;;;;;;;5100034;27;62181;-79
2022/09/03 11:58:19;;;;;;;;;2.67;2.67;;;;;;;;5103115;27;62143;-80
2022/09/03 12:00:44;;;;;;;;;2.33;1.00;;;;;;;;5103546;27;61831;-79
2022/09/03 12:03:14;;;;;;;;;1.67;1.00;;;;;;;;5104611;27;61933;-80
2022/09/03 12:05:52;;;;;;;;;1.00;1.00;;;;;;;;5104491;27;62855;-80
2022/09/03 12:08:35;;;;;;;;;2.00;1.00;;;;;;;;5102486;27;62132;-80
2022/09/03 12:11:19;;;;;;;;;1.00;1.00;;;;;;;;5104727;27;62272;-80
2022/09/03 12:13:57;;;;;;;;;1.00;1.00;;;;;;;;5103417;27;61771;-80
2022/09/03 12:16:22;;;;;;;;;2.00;1.67;;;;;;;;5102564;27;62596;-80
2022/09/03 12:18:51;;;;;;;;;2.00;2.00;;;;;;;;5105458;27;62328;-80
2022/09/03 12:21:17;;;;;;;;;2.00;2.00;;;;;;;;5112333;27;61893;-79
2022/09/03 12:23:47;;;;;;;;;2.67;1.67;;;;;;;;5108600;27;62048;-80
2022/09/03 12:26:22;;;;;;;;;0.67;0.67;;;;;;;;5109380;27;62137;-80
2022/09/03 12:28:49;;;;;;;;;2.00;1.00;;;;;;;;5104133;27;62011;-79
2022/09/03 12:31:21;;;;;;;;;1.67;1.67;;;;;;;;5104406;27;61836;-80
2022/09/03 12:33:52;;;;;;;;;2.00;2.00;;;;;;;;5104294;27;61878;-80
2022/09/03 12:36:18;;;;;;;;;0.00;0.00;;;;;;;;5101883;27;63662;-79
2022/09/03 12:38:43;;;;;;;;;0.00;0.00;;;;;;;;5103484;27;61901;-80
2022/09/03 12:41:25;;;;;;;;;1.00;1.00;;;;;;;;5104690;27;61850;-79
2022/09/03 12:43:55;;;;;;;;;0.00;0.00;;;;;;;;5104666;27;61804;-81
2022/09/03 12:46:22;;;;;;;;;2.00;0.00;;;;;;;;5103269;27;62953;-79
2022/09/03 12:48:55;;;;;;;;;1.00;1.00;;;;;;;;5103421;27;61904;-80
2022/09/03 12:51:20;;;;;;;;;0.00;0.00;;;;;;;;5102776;27;61753;-81
2022/09/03 12:53:46;;;;;;;;;0.33;0.33;;;;;;;;5102059;27;61860;-80
2022/09/03 12:56:12;;;;;;;;;0.33;0.33;;;;;;;;5103390;27;63263;-81
2022/09/03 12:58:58;;;;;;;;;2.00;0.33;;;;;;;;5103453;27;61947;-80
2022/09/03 13:01:30;;;;;;;;;0.00;0.00;;;;;;;;5102491;27;62123;-80
2022/09/03 13:04:01;;;;;;;;;0.67;0.67;;;;;;;;5102434;27;62061;-79
2022/09/03 13:06:30;;;;;;;;;0.00;0.00;;;;;;;;5099761;27;61820;-80
2022/09/03 13:09:00;;;;;;;;;0.00;0.00;;;;;;;;5101564;27;61793;-80
2022/09/03 13:11:27;;;;;;;;;1.00;0.00;;;;;;;;5101932;27;61808;-80
2022/09/03 13:13:55;;;;;;;;;0.00;0.00;;;;;;;;5101728;27;61837;-81
2022/09/03 13:16:20;;;;;;;;;0.00;0.00;;;;;;;;5102205;27;62058;-80
2022/09/03 13:18:53;;;;;;;;;0.00;0.00;;;;;;;;5098904;27;62113;-79
2022/09/03 13:21:18;;;;;;;;;0.67;0.00;;;;;;;;5100083;27;62516;-82
2022/09/03 13:23:55;;;;;;;;;0.00;0.00;;;;;;;;5095237;27;62239;-79
2022/09/03 13:26:40;;;;;;;;;0.00;0.00;;;;;;;;5098480;27;61848;-82
2022/09/03 13:29:06;;;;;;;;;0.00;0.00;;;;;;;;5098488;27;61723;-84
2022/09/03 13:31:34;;;;;;;;;1.00;0.00;;;;;;;;5100557;27;62056;-82
2022/09/03 13:34:08;;;;;;;;;2.00;0.00;;;;;;;;5101379;27;61846;-79
2022/09/03 13:36:41;;;;;;;;;0.00;0.00;;;;;;;;5117333;27;63618;-80
2022/09/03 13:39:15;;;;;;;;;0.00;0.00;;;;;;;;5102789;27;61751;-81
2022/09/03 13:41:44;;;;;;;;;0.00;0.00;;;;;;;;5102774;27;61739;-81
2022/09/03 13:44:13;;;;;;;;;2.00;0.00;;;;;;;;5101650;27;62081;-81
2022/09/03 13:46:44;;;;;;;;;0.00;0.00;;;;;;;;5100560;27;63961;-80
2022/09/03 13:52:21;;;;;;;;;0.00;0.00;;;;;;;;5101783;27;61924;-79
2022/09/03 13:54:51;;;;;;;;;0.00;0.00;;;;;;;;5102531;27;61693;-80
2022/09/03 13:57:22;;;;;;;;;0.00;0.00;;;;;;;;5102103;27;61810;-80
2022/09/03 13:59:51;;;;;;;;;0.00;0.00;;;;;;;;5100580;27;61728;-78
2022/09/03 14:02:35;;;;;;;;;1.00;0.00;;;;;;;;5099459;27;61855;-81
2022/09/03 14:05:11;;;;;;;;;0.00;0.00;;;;;;;;5092368;27;62137;-81
2022/09/03 14:08:00;;;;;;;;;0.00;0.00;;;;;;;;5099779;27;64131;-81
2022/09/03 14:10:45;;;;;;;;;0.00;0.00;;;;;;;;5096470;27;61848;-82
2022/09/03 14:13:10;;;;;;;;;0.00;0.00;;;;;;;;5101179;27;61862;-78
2022/09/03 14:15:42;;;;;;;;;0.00;0.00;;;;;;;;5099773;27;61912;-80
2022/09/03 14:18:27;;;;;;;;;0.00;0.00;;;;;;;;5101328;27;61987;-78
2022/09/03 14:20:55;;;;;;;;;0.00;0.00;;;;;;;;5101558;27;61914;-78
2022/09/03 14:23:20;;;;;;;;;0.00;0.00;;;;;;;;5099859;27;61863;-78
2022/09/03 14:25:53;;;;;;;;;0.00;0.00;;;;;;;;5102166;27;61702;-78
2022/09/03 14:28:27;;;;;;;;;0.00;0.00;;;;;;;;5099206;27;61915;-82
2022/09/03 14:31:34;;;;;;;;;2.33;1.00;;;;;;;;5100577;27;62044;-82
2022/09/03 14:34:07;;;;;;;;;1.00;1.00;;;;;;;;5018907;28;61870;-80
2022/09/03 14:36:35;;;;;;;;;1.00;0.00;;;;;;;;5037991;28;62053;-81
2022/09/03 14:39:01;;;;;;;;;0.00;0.00;;;;;;;;5020515;28;63488;-81
2022/09/03 14:41:31;;;;;;;;;0.00;0.00;;;;;;;;5038358;28;61855;-85
2022/09/03 14:44:15;;;;;;;;;0.00;0.00;;;;;;;;5037788;28;61901;-81
2022/09/03 14:46:51;;;;;;;;;2.00;0.00;;;;;;;;5037964;28;62174;-81
2022/09/03 14:49:19;;;;;;;;;0.67;0.00;;;;;;;;5019907;28;63612;-81
2022/09/03 14:51:53;;;;;;;;;1.67;1.00;;;;;;;;5037167;28;62228;-81
2022/09/03 14:54:37;;;;;;;;;0.00;0.00;;;;;;;;5018516;28;62172;-80
2022/09/03 14:57:08;;;;;;;;;1.67;0.00;;;;;;;;5038044;28;62030;-80
2022/09/03 14:59:52;;;;;;;;;0.00;0.00;;;;;;;;5037111;28;63132;-80
2022/09/03 15:02:18;;;;;;;;;1.67;0.00;;;;;;;;5037587;28;61769;-83
2022/09/03 15:04:46;;;;;;;;;0.00;0.00;;;;;;;;5056504;27;61998;-81
2022/09/03 15:07:17;;;;;;;;;0.33;0.33;;;;;;;;5100143;27;62015;-81
2022/09/03 15:09:53;;;;;;;;;1.00;1.00;;;;;;;;5095774;27;63592;-80